createdAt,value
2022-10-23T00:01:14.334Z,79.40
2022-10-23T00:03:42.243Z,79.36
2022-10-23T00:06:10.687Z,79.00
2022-10-23T00:08:40.277Z,79.37
2022-10-23T00:11:09.512Z,79.24
2022-10-23T00:13:37.248Z,79.37
2022-10-23T00:16:06.189Z,79.34
2022-10-23T00:18:34.334Z,79.29
2022-10-23T00:21:02.990Z,79.59
2022-10-23T00:23:30.618Z,79.34
2022-10-23T00:26:00.212Z,79.47
2022-10-23T00:28:28.098Z,79.46
2022-10-23T00:30:55.803Z,79.32
2022-10-23T00:33:23.516Z,79.40
2022-10-23T00:35:51.846Z,79.40
2022-10-23T00:38:19.491Z,79.41
2022-10-23T00:43:24.664Z,79.25
2022-10-23T00:45:53.018Z,79.23
2022-10-23T00:48:21.813Z,79.31
2022-10-23T00:50:50.648Z,79.25
2022-10-23T00:53:20.181Z,79.10
2022-10-23T00:55:51.632Z,79.09
2022-10-23T00:58:21.475Z,79.23
2022-10-23T01:00:55.073Z,79.14
2022-10-23T01:03:26.219Z,79.07
2022-10-23T01:06:01.370Z,78.85
2022-10-23T01:08:33.102Z,79.13
2022-10-23T01:11:07.289Z,79.07
2022-10-23T01:13:44.235Z,77.75
2022-10-23T01:16:20.190Z,77.83
2022-10-23T01:18:53.357Z,77.99
2022-10-23T01:21:28.612Z,78.07
2022-10-23T01:24:11.137Z,78.07
2022-10-23T01:26:56.260Z,77.53
2022-10-23T01:29:33.623Z,77.52
2022-10-23T01:32:08.281Z,77.29
2022-10-23T01:34:42.275Z,77.25
2022-10-23T01:37:14.387Z,76.81
2022-10-23T01:39:47.966Z,77.07
2022-10-23T01:42:20.827Z,76.75
2022-10-23T01:44:54.170Z,77.04
2022-10-23T01:47:28.364Z,77.44
2022-10-23T01:50:03.378Z,77.66
2022-10-23T01:52:31.774Z,78.19
2022-10-23T01:55:01.980Z,78.34
2022-10-23T01:57:34.420Z,77.79
2022-10-23T02:00:08.235Z,77.82
2022-10-23T02:02:53.669Z,77.74
2022-10-23T02:05:29.225Z,78.34
2022-10-23T02:07:59.254Z,78.02
2022-10-23T02:10:36.070Z,78.23
2022-10-23T02:13:08.303Z,78.45
2022-10-23T02:15:40.974Z,78.86
2022-10-23T02:18:16.342Z,78.37
2022-10-23T02:20:48.244Z,78.46
2022-10-23T02:23:22.359Z,78.59
2022-10-23T02:25:57.139Z,78.71
2022-10-23T02:28:28.885Z,78.67
2022-10-23T02:31:06.259Z,78.93
2022-10-23T02:33:35.621Z,78.93
2022-10-23T02:36:04.264Z,78.90
2022-10-23T02:38:35.957Z,79.17
2022-10-23T02:41:18.869Z,78.27
2022-10-23T02:43:57.317Z,78.26
2022-10-23T02:46:32.446Z,78.76
2022-10-23T02:49:10.895Z,78.53
2022-10-23T02:51:49.224Z,78.72
2022-10-23T02:54:32.859Z,78.72
2022-10-23T02:57:07.000Z,78.98
2022-10-23T02:59:41.759Z,78.71
2022-10-23T03:02:22.824Z,78.28
2022-10-23T03:04:53.603Z,78.36
2022-10-23T03:07:22.369Z,78.33
2022-10-23T03:09:50.061Z,78.34
2022-10-23T03:12:18.397Z,78.14
2022-10-23T03:14:46.063Z,78.52
2022-10-23T03:17:15.873Z,78.43
2022-10-23T03:19:47.327Z,78.69
2022-10-23T03:22:15.233Z,78.89
2022-10-23T03:24:43.449Z,78.44
2022-10-23T03:27:12.048Z,78.93
2022-10-23T03:29:40.199Z,79.34
2022-10-23T03:32:08.073Z,79.11
2022-10-23T03:34:37.380Z,79.35
2022-10-23T03:37:06.253Z,79.12
2022-10-23T03:39:33.898Z,79.36
2022-10-23T03:42:02.108Z,79.49
2022-10-23T03:44:31.360Z,79.23
2022-10-23T03:47:00.024Z,79.19
2022-10-23T03:49:28.113Z,79.22
2022-10-23T03:52:05.513Z,79.54
2022-10-23T03:54:33.823Z,79.14
2022-10-23T03:57:02.204Z,79.26
2022-10-23T03:59:30.316Z,79.05
2022-10-23T04:01:59.752Z,79.19
2022-10-23T04:04:28.062Z,79.03
2022-10-23T04:06:56.129Z,78.77
2022-10-23T04:09:25.714Z,78.92
2022-10-23T04:11:53.722Z,78.92
2022-10-23T04:14:21.356Z,79.17
2022-10-23T04:16:49.309Z,79.33
2022-10-23T04:19:17.479Z,79.39
2022-10-23T04:21:45.353Z,78.98
2022-10-23T04:24:13.094Z,78.93
2022-10-23T04:26:42.915Z,78.95
2022-10-23T04:29:11.761Z,79.07
2022-10-23T04:31:40.107Z,79.16
2022-10-23T04:34:07.907Z,78.98
2022-10-23T04:36:37.221Z,79.25
2022-10-23T04:39:10.966Z,79.05
2022-10-23T04:41:39.597Z,78.69
2022-10-23T04:44:09.167Z,78.55
2022-10-23T04:46:40.138Z,78.32
2022-10-23T04:49:07.873Z,78.39
2022-10-23T04:51:48.519Z,77.95
2022-10-23T04:54:43.178Z,77.98
2022-10-23T04:57:23.478Z,78.39
2022-10-23T05:00:15.917Z,78.15
2022-10-23T05:02:49.199Z,78.33
2022-10-23T05:05:18.923Z,78.14
2022-10-23T05:07:55.269Z,78.07
2022-10-23T05:10:29.132Z,78.44
2022-10-23T05:13:14.654Z,78.51
2022-10-23T05:18:24.077Z,77.64
2022-10-23T05:20:57.681Z,77.69
2022-10-23T05:23:26.319Z,77.63
2022-10-23T05:26:03.529Z,77.76
2022-10-23T05:28:32.599Z,77.39
2022-10-23T05:31:05.079Z,77.30
2022-10-23T05:33:35.907Z,77.45
2022-10-23T05:36:04.720Z,78.23
2022-10-23T05:38:35.944Z,78.28
2022-10-23T05:41:11.865Z,77.37
2022-10-23T05:43:39.550Z,77.61
2022-10-23T05:46:29.151Z,77.61
2022-10-23T05:49:12.480Z,77.94
2022-10-23T05:51:52.134Z,78.73
2022-10-23T05:54:24.720Z,78.29
2022-10-23T05:57:22.005Z,78.18
2022-10-23T05:59:51.765Z,78.21
2022-10-23T06:02:25.902Z,78.04
2022-10-23T06:04:59.869Z,78.38
2022-10-23T06:07:50.725Z,78.39
2022-10-23T06:10:19.741Z,78.63
2022-10-23T06:12:51.003Z,78.23
2022-10-23T06:15:19.757Z,78.51
2022-10-23T06:18:11.775Z,78.20
2022-10-23T06:20:50.405Z,78.13
2022-10-23T06:23:25.219Z,77.28
2022-10-23T06:26:10.941Z,77.60
2022-10-23T06:28:50.222Z,77.54
2022-10-23T06:31:20.376Z,77.57
2022-10-23T06:33:52.507Z,77.89
2022-10-23T06:36:20.508Z,77.74
2022-10-23T06:38:49.540Z,77.67
2022-10-23T06:41:19.880Z,77.73
2022-10-23T06:43:53.309Z,78.24
2022-10-23T06:46:30.131Z,77.79
2022-10-23T06:49:05.235Z,78.09
2022-10-23T06:51:39.281Z,78.26
2022-10-23T06:54:12.571Z,77.96
2022-10-23T06:56:49.225Z,78.04
2022-10-23T06:59:20.683Z,77.79
2022-10-23T07:01:51.964Z,77.51
2022-10-23T07:04:21.002Z,77.37
2022-10-23T07:06:49.561Z,77.19
2022-10-23T07:09:21.726Z,77.14
2022-10-23T07:11:52.392Z,77.30
2022-10-23T07:14:24.087Z,76.76
2022-10-23T07:16:51.756Z,76.56
2022-10-23T07:19:21.941Z,76.86
2022-10-23T07:21:55.562Z,76.76
2022-10-23T07:24:37.097Z,76.92
2022-10-23T07:27:09.762Z,76.14
2022-10-23T07:29:37.455Z,76.02
2022-10-23T07:32:06.466Z,75.65
2022-10-23T07:34:54.185Z,74.77
2022-10-23T07:37:30.265Z,74.81
2022-10-23T07:40:00.183Z,74.15
2022-10-23T07:42:28.594Z,73.75
2022-10-23T07:44:56.269Z,73.52
2022-10-23T07:47:24.797Z,73.01
2022-10-23T07:49:54.818Z,72.79
2022-10-23T07:52:22.791Z,72.67
2022-10-23T07:55:09.825Z,72.51
2022-10-23T07:57:41.397Z,70.88
2022-10-23T08:03:06.472Z,71.90
2022-10-23T08:05:35.838Z,72.76
2022-10-23T08:08:05.513Z,72.63
2022-10-23T08:10:33.750Z,71.40
2022-10-23T08:13:02.162Z,70.87
2022-10-23T08:15:53.084Z,69.96
2022-10-23T08:18:40.922Z,68.84
2022-10-23T08:21:11.534Z,68.40
2022-10-23T08:23:39.689Z,68.91
2022-10-23T08:26:09.357Z,68.18
2022-10-23T08:28:37.332Z,66.75
2022-10-23T08:31:10.493Z,65.74
2022-10-23T08:33:39.696Z,65.72
2022-10-23T08:36:18.578Z,64.79
2022-10-23T08:38:46.405Z,64.71
2022-10-23T08:41:26.653Z,64.31
2022-10-23T08:44:13.102Z,61.78
2022-10-23T08:46:48.304Z,61.56
2022-10-23T08:49:45.471Z,61.36
2022-10-23T08:52:20.921Z,60.51
2022-10-23T08:55:02.896Z,58.03
2022-10-23T08:57:40.056Z,57.69
2022-10-23T09:00:15.066Z,56.89
2022-10-23T09:02:46.378Z,57.12
2022-10-23T09:05:18.481Z,55.65
2022-10-23T09:08:02.394Z,54.44
2022-10-23T09:10:38.689Z,54.36
2022-10-23T09:13:41.366Z,55.55
2022-10-23T09:16:18.575Z,53.27
2022-10-23T09:18:48.232Z,53.30
2022-10-23T09:21:16.765Z,52.14
2022-10-23T09:23:45.756Z,52.63
2022-10-23T09:26:16.857Z,51.28
2022-10-23T09:28:48.581Z,50.42
2022-10-23T09:31:17.431Z,50.17
2022-10-23T09:33:55.386Z,47.62
2022-10-23T09:36:24.796Z,48.86
2022-10-23T09:38:55.294Z,48.14
2022-10-23T09:41:28.535Z,47.02
2022-10-23T09:44:03.877Z,46.51
2022-10-23T09:46:39.261Z,45.70
2022-10-23T09:49:08.057Z,44.66
2022-10-23T09:51:36.426Z,44.68
2022-10-23T09:54:05.865Z,45.49
2022-10-23T09:56:36.734Z,44.52
2022-10-23T09:59:07.011Z,42.48
2022-10-23T10:01:37.529Z,40.10
2022-10-23T10:04:39.011Z,39.80
2022-10-23T10:07:20.422Z,40.06
2022-10-23T10:09:49.823Z,40.17
2022-10-23T10:12:41.821Z,39.97
2022-10-23T10:15:21.305Z,39.08
2022-10-23T10:17:58.026Z,39.21
2022-10-23T10:20:40.289Z,40.06
2022-10-23T10:23:15.054Z,41.27
2022-10-23T10:25:52.981Z,41.39
2022-10-23T10:28:51.198Z,40.57
2022-10-23T10:31:25.829Z,41.24
2022-10-23T10:34:06.320Z,40.90
2022-10-23T10:36:47.394Z,41.14
2022-10-23T10:39:26.682Z,40.46
2022-10-23T10:42:11.208Z,41.20
2022-10-23T10:44:51.650Z,41.64
2022-10-23T10:47:25.967Z,42.13
2022-10-23T10:50:03.918Z,42.09
2022-10-23T10:52:49.894Z,43.18
2022-10-23T10:55:24.514Z,44.97
2022-10-23T10:57:59.938Z,45.27
2022-10-23T11:00:31.298Z,45.20
2022-10-23T11:03:03.645Z,46.51
2022-10-23T11:05:34.088Z,46.91
2022-10-23T11:08:06.935Z,48.50
2022-10-23T11:10:37.378Z,48.51
2022-10-23T11:13:06.390Z,49.12
2022-10-23T11:15:40.172Z,48.94
2022-10-23T11:18:16.677Z,47.88
2022-10-23T11:21:00.199Z,48.32
2022-10-23T11:23:56.407Z,48.55
2022-10-23T11:26:40.763Z,49.98
2022-10-23T11:29:30.463Z,50.72
2022-10-23T11:32:15.493Z,50.56
2022-10-23T11:35:14.141Z,50.56
2022-10-23T11:37:42.700Z,50.56
2022-10-23T11:40:23.921Z,50.29
2022-10-23T11:42:52.504Z,50.51
2022-10-23T11:45:31.255Z,50.39
2022-10-23T11:48:01.167Z,50.56
2022-10-23T11:50:33.037Z,49.80
2022-10-23T11:53:14.645Z,50.83
2022-10-23T11:55:59.321Z,51.14
2022-10-23T11:58:31.993Z,52.36
2022-10-23T12:01:05.723Z,52.72
2022-10-23T12:03:50.292Z,52.16
2022-10-23T12:06:25.607Z,52.08
2022-10-23T12:08:57.368Z,52.76
2022-10-23T12:11:40.330Z,53.86
2022-10-23T12:14:27.251Z,54.64
2022-10-23T12:16:57.009Z,54.76
2022-10-23T12:19:28.057Z,53.64
2022-10-23T12:21:59.784Z,52.37
2022-10-23T12:24:52.093Z,53.35
2022-10-23T12:27:31.763Z,53.57
2022-10-23T12:30:22.282Z,53.49
2022-10-23T12:33:05.560Z,53.90
2022-10-23T12:36:05.226Z,53.61
2022-10-23T12:38:35.487Z,53.51
2022-10-23T12:41:14.661Z,53.46
2022-10-23T12:43:51.421Z,52.89
2022-10-23T12:46:35.179Z,52.93
2022-10-23T12:49:15.463Z,53.17
2022-10-23T12:51:43.811Z,53.09
2022-10-23T12:54:16.770Z,53.65
2022-10-23T12:56:46.045Z,54.74
2022-10-23T12:59:17.663Z,54.09
2022-10-23T13:01:49.150Z,54.48
2022-10-23T13:04:27.793Z,54.28
2022-10-23T13:06:58.233Z,54.67
2022-10-23T13:09:31.101Z,54.71
2022-10-23T13:12:25.894Z,54.61
2022-10-23T13:15:00.952Z,55.13
2022-10-23T13:17:37.750Z,55.62
2022-10-23T13:20:21.964Z,55.64
2022-10-23T13:23:01.044Z,55.48
2022-10-23T13:25:31.443Z,55.39
2022-10-23T13:28:22.189Z,55.97
2022-10-23T13:31:01.920Z,56.05
2022-10-23T13:33:35.103Z,56.67
2022-10-23T13:36:07.947Z,57.26
2022-10-23T13:38:37.169Z,57.84
2022-10-23T13:41:12.786Z,58.12
2022-10-23T13:43:40.767Z,58.68
2022-10-23T13:46:15.256Z,58.88
2022-10-23T13:48:43.221Z,59.01
2022-10-23T13:51:14.580Z,59.47
2022-10-23T13:53:42.489Z,59.43
2022-10-23T13:56:12.917Z,59.70
2022-10-23T13:58:41.235Z,59.90
2022-10-23T14:01:17.443Z,60.57
2022-10-23T14:03:45.170Z,61.05
2022-10-23T14:06:14.670Z,61.56
2022-10-23T14:08:42.581Z,61.78
2022-10-23T14:11:11.723Z,61.89
2022-10-23T14:13:39.446Z,62.22
2022-10-23T14:16:08.465Z,62.11
2022-10-23T14:18:36.412Z,62.65
2022-10-23T14:21:06.031Z,62.84
2022-10-23T14:23:35.034Z,63.03
2022-10-23T14:26:03.965Z,63.33
2022-10-23T14:28:31.739Z,63.73
2022-10-23T14:31:04.530Z,63.78
2022-10-23T14:33:32.247Z,63.82
2022-10-23T14:36:00.682Z,64.19
2022-10-23T14:38:28.662Z,64.13
2022-10-23T14:40:58.293Z,64.65
2022-10-23T14:43:26.390Z,65.10
2022-10-23T14:45:54.823Z,65.12
2022-10-23T14:48:22.462Z,65.24
2022-10-23T14:50:51.169Z,65.25
2022-10-23T14:53:18.785Z,65.28
2022-10-23T14:55:47.087Z,65.82
2022-10-23T14:58:16.050Z,65.84
2022-10-23T15:00:44.265Z,66.02
2022-10-23T15:03:11.881Z,66.14
2022-10-23T15:05:42.793Z,66.33
2022-10-23T15:08:10.840Z,66.46
2022-10-23T15:10:39.429Z,66.90
2022-10-23T15:13:07.576Z,66.88
2022-10-23T15:15:36.559Z,66.96
2022-10-23T15:18:04.351Z,67.24
2022-10-23T15:20:32.666Z,67.32
2022-10-23T15:23:01.337Z,67.88
2022-10-23T15:25:29.321Z,68.23
2022-10-23T15:27:57.127Z,68.35
2022-10-23T15:30:25.571Z,68.79
2022-10-23T15:32:54.602Z,68.49
2022-10-23T15:35:22.619Z,69.13
2022-10-23T15:37:50.286Z,68.85
2022-10-23T15:40:18.483Z,69.99
2022-10-23T15:42:47.549Z,69.97
2022-10-23T15:45:15.401Z,70.43
2022-10-23T15:47:43.935Z,70.44
2022-10-23T15:50:13.159Z,70.68
2022-10-23T15:52:41.235Z,71.31
2022-10-23T15:55:11.558Z,71.55
2022-10-23T15:57:39.998Z,71.60
2022-10-23T16:00:10.358Z,71.50
2022-10-23T16:02:38.557Z,71.63
2022-10-23T16:05:06.954Z,71.79
2022-10-23T16:07:36.655Z,72.46
2022-10-23T16:10:05.438Z,72.47
2022-10-23T16:12:33.711Z,72.71
2022-10-23T16:15:01.336Z,72.86
2022-10-23T16:17:29.710Z,72.69
2022-10-23T16:19:57.357Z,72.96
2022-10-23T16:22:25.613Z,72.75
2022-10-23T16:24:54.674Z,73.21
2022-10-23T16:27:22.651Z,73.46
2022-10-23T16:29:50.278Z,73.94
2022-10-23T16:32:18.575Z,73.58
2022-10-23T16:34:46.406Z,73.44
2022-10-23T16:37:14.799Z,73.75
2022-10-23T16:39:49.741Z,74.00
2022-10-23T16:42:37.858Z,73.49
2022-10-23T16:45:21.613Z,74.53
2022-10-23T16:47:49.254Z,74.56
2022-10-23T16:50:17.566Z,75.15
2022-10-23T16:52:45.549Z,75.50
2022-10-23T16:55:13.502Z,73.94
2022-10-23T16:57:43.081Z,74.37
2022-10-23T17:00:11.546Z,74.69
2022-10-23T17:02:39.286Z,75.96
2022-10-23T17:05:08.301Z,75.25
2022-10-23T17:07:37.109Z,75.15
2022-10-23T17:10:06.054Z,75.18
2022-10-23T17:12:33.779Z,77.97
2022-10-23T17:15:03.408Z,79.29
2022-10-23T17:17:31.052Z,78.34
2022-10-23T17:19:59.529Z,79.18
2022-10-23T17:22:27.756Z,79.11
2022-10-23T17:24:55.371Z,78.16
2022-10-23T17:27:23.728Z,77.98
2022-10-23T17:29:51.399Z,81.45
2022-10-23T17:34:48.986Z,80.84
2022-10-23T17:37:17.196Z,79.68
2022-10-23T17:39:44.882Z,79.54
2022-10-23T17:42:12.541Z,79.62
2022-10-23T17:44:40.169Z,79.35
2022-10-23T17:47:08.078Z,79.26
2022-10-23T17:49:38.056Z,79.24
2022-10-23T17:52:06.519Z,78.77
2022-10-23T17:54:34.161Z,78.94
2022-10-23T17:57:01.802Z,79.01
2022-10-23T17:59:29.482Z,78.76
2022-10-23T18:01:59.498Z,78.66
2022-10-23T18:04:27.294Z,78.37
2022-10-23T18:06:56.297Z,78.40
2022-10-23T18:09:24.270Z,77.96
2022-10-23T18:11:52.755Z,78.40
2022-10-23T18:14:22.200Z,78.36
2022-10-23T18:16:50.828Z,78.42
2022-10-23T18:19:19.423Z,78.43
2022-10-23T18:21:48.435Z,78.26
2022-10-23T18:24:18.790Z,77.97
2022-10-23T18:26:48.046Z,78.06
2022-10-23T18:29:17.375Z,78.35
2022-10-23T18:31:47.959Z,78.47
2022-10-23T18:34:17.981Z,78.53
2022-10-23T18:36:46.500Z,78.30
2022-10-23T18:39:16.122Z,78.58
2022-10-23T18:41:46.363Z,78.46
2022-10-23T18:44:16.422Z,78.19
2022-10-23T18:46:44.582Z,77.97
2022-10-23T18:49:12.878Z,78.10
2022-10-23T18:51:40.818Z,78.43
2022-10-23T18:54:11.683Z,77.95
2022-10-23T18:56:39.997Z,77.80
2022-10-23T18:59:12.143Z,78.29
2022-10-23T19:01:40.297Z,78.62
2022-10-23T19:04:08.706Z,78.90
2022-10-23T19:06:37.914Z,78.96
2022-10-23T19:09:07.949Z,79.10
2022-10-23T19:11:36.907Z,79.06
2022-10-23T19:14:04.648Z,79.24
2022-10-23T19:16:38.421Z,78.85
2022-10-23T19:19:12.088Z,79.01
2022-10-23T19:21:41.317Z,79.10
2022-10-23T19:24:12.013Z,79.77
2022-10-23T19:26:41.049Z,79.49
2022-10-23T19:29:10.855Z,78.99
2022-10-23T19:31:43.102Z,79.24
2022-10-23T19:34:10.741Z,79.27
2022-10-23T19:36:38.470Z,80.38
2022-10-23T19:39:06.098Z,79.48
2022-10-23T19:41:33.805Z,80.04
2022-10-23T19:44:01.486Z,79.97
2022-10-23T19:46:29.138Z,80.43
2022-10-23T19:48:58.143Z,82.10
2022-10-23T19:51:25.837Z,81.02
2022-10-23T19:53:55.182Z,80.67
2022-10-23T19:56:23.169Z,81.06
2022-10-23T19:58:51.446Z,81.20
2022-10-23T20:01:21.833Z,81.04
2022-10-23T20:03:49.708Z,80.89
2022-10-23T20:06:20.959Z,80.82
2022-10-23T20:08:48.989Z,81.02
2022-10-23T20:11:20.375Z,81.66
2022-10-23T20:13:48.847Z,82.20
2022-10-23T20:16:24.211Z,83.61
2022-10-23T20:18:52.545Z,82.47
2022-10-23T20:21:22.263Z,81.62
2022-10-23T20:23:50.123Z,82.16
2022-10-23T20:26:21.235Z,82.25
2022-10-23T20:28:51.272Z,81.51
2022-10-23T20:31:20.636Z,81.39
2022-10-23T20:33:48.311Z,81.71
2022-10-23T20:36:25.756Z,82.68
2022-10-23T20:38:53.521Z,83.26
2022-10-23T20:41:22.322Z,84.55
2022-10-23T20:43:49.973Z,84.27
2022-10-23T20:46:17.780Z,83.99
2022-10-23T20:48:45.884Z,83.70
2022-10-23T20:51:16.496Z,84.22
2022-10-23T20:53:46.235Z,84.60
2022-10-23T20:56:18.339Z,83.94
2022-10-23T20:58:46.166Z,82.67
2022-10-23T21:01:17.669Z,83.78
2022-10-23T21:03:50.056Z,82.69
2022-10-23T21:06:19.284Z,82.86
2022-10-23T21:08:49.084Z,82.23
2022-10-23T21:11:19.000Z,81.96
2022-10-23T21:13:46.754Z,81.70
2022-10-23T21:16:17.069Z,81.14
2022-10-23T21:18:46.900Z,80.80
2022-10-23T21:21:17.289Z,80.42
2022-10-23T21:23:45.126Z,81.12
2022-10-23T21:26:15.804Z,80.64
2022-10-23T21:28:55.678Z,79.96
2022-10-23T21:31:33.955Z,79.69
2022-10-23T21:34:01.784Z,79.42
2022-10-23T21:36:31.087Z,79.34
2022-10-23T21:39:01.963Z,79.39
2022-10-23T21:41:34.209Z,79.36
2022-10-23T21:44:03.393Z,79.32
2022-10-23T21:46:33.708Z,79.18
2022-10-23T21:49:01.897Z,79.38
2022-10-23T21:51:35.556Z,78.89
2022-10-23T21:54:03.563Z,77.99
2022-10-23T21:56:36.742Z,77.32
2022-10-23T22:01:40.113Z,77.30
2022-10-23T22:04:08.057Z,76.71
2022-10-23T22:06:36.247Z,76.15
2022-10-23T22:09:05.587Z,76.34
2022-10-23T22:11:35.391Z,77.44
2022-10-23T22:14:03.053Z,77.63
2022-10-23T22:16:31.201Z,77.00
2022-10-23T22:18:59.195Z,76.52
2022-10-23T22:21:29.112Z,75.51
2022-10-23T22:23:59.160Z,75.13
2022-10-23T22:26:29.714Z,74.09
2022-10-23T22:29:01.360Z,73.55
2022-10-23T22:31:33.318Z,72.76
2022-10-23T22:34:13.132Z,72.08
2022-10-23T22:36:50.837Z,71.39
2022-10-23T22:39:18.974Z,70.88
2022-10-23T22:41:47.815Z,70.81
2022-10-23T22:44:17.063Z,71.16
2022-10-23T22:46:45.536Z,71.63
2022-10-23T22:49:13.305Z,71.26
2022-10-23T22:51:41.645Z,71.41
2022-10-23T22:54:09.670Z,71.48
2022-10-23T22:56:37.775Z,70.59
2022-10-23T22:59:05.908Z,69.59
2022-10-23T23:01:37.890Z,70.38
2022-10-23T23:04:19.777Z,70.96
2022-10-23T23:06:54.002Z,72.46
2022-10-23T23:09:21.636Z,72.28
2022-10-23T23:11:52.888Z,72.92
2022-10-23T23:14:23.695Z,74.25
2022-10-23T23:16:54.229Z,75.38
2022-10-23T23:19:24.118Z,76.45
2022-10-23T23:21:52.505Z,76.37
2022-10-23T23:24:20.144Z,76.74
2022-10-23T23:26:48.102Z,76.60
2022-10-23T23:29:15.750Z,78.07
2022-10-23T23:31:44.234Z,78.23
2022-10-23T23:34:13.206Z,77.85
2022-10-23T23:36:41.793Z,77.51
2022-10-23T23:39:09.470Z,77.56
2022-10-23T23:41:37.503Z,77.28
2022-10-23T23:44:05.362Z,77.31
2022-10-23T23:46:33.540Z,77.24
2022-10-23T23:49:01.195Z,77.72
2022-10-23T23:51:30.830Z,77.34
2022-10-23T23:53:58.497Z,77.59
2022-10-23T23:56:26.606Z,78.22
2022-10-23T23:58:54.266Z,78.90
